메인 페이지
METAR-TAF:

METAR-TAF

공항 :

포트오브스페인, 트리니다드 섬, 트리니다드 토바고

위도: 10-37N, 경도: 061-21W, 고도: 12m

현재 날씨관측

예보는 45분 전, 12:00시(UTC)에 발표되었습니다.
동남동3kt
온도 25°C
습도 94%
기압 1015 hPa
시정 10km 이상
고도 1600ft 상공 구름 조금
시계 내 소나기

METAR: TTPP 221200Z 11003KT 9999 VCSH FEW016 25/24 Q1015 NOSIG RMK VCSH-NE

시각: 08:45 (12:45 UTC)

예보

예보는 2 시간 45분 전, 10:00시(UTC)에 발표되었습니다.
예보 대상 시간: 22일 12시부터 23일 12시까지 (UTC)
동남동12kt
시정 10km 이상
고도 2500ft 상공 구름 보통
일시적
22일 16시부터 22일 21시까지 (UTC)
시정: 7000m
고도 1500ft 상공 구름 보통
소나기
전환 중
22일 23시부터 23일 01시까지 (UTC)
5kt
고도 1800ft 상공 구름 조금
확률 40% :
일시적
23일 06시부터 23일 12시까지 (UTC)
시정: 6000m
고도 1500ft 상공 구름 보통
고도 3800ft 상공 구름 보통
소나기

TAF: TTPP 221000Z 2212/2312 11012KT 9999 SCT025 TEMPO 2216/2221 7000 SHRA SCT015 BECMG 2223/2301 10005KT FEW018 PROB40 TEMPO 2306/2312 6000 SHRA SCT015 SCT038

4,000개 이상의 공항 관측 자료 및 예보 (METAR 및 TAF 보고).

지도상에서 검색 가능한 기상관측소가 노란 점과 빨간 점으로 표시되어 있습니다.

기상관측소 명을 보려면 표시 위로 마우스를 이동하세요.

날씨 관측과 예보를 보려면 클릭하세요.

지도 변경 : 확대하려면 엑스 표시가 있는 녹색 버튼, 축소하려면 빼기 표시가 있는 녹색 버튼, 다음 페이지의 지도를 보려면 녹색 화살표를 클릭하세요.


METAR-TAF: